sensor_id;sensor_type;location;lat;lon;timestamp;pressure;altitude;pressure_sealevel;temperature;humidity
67434;BME280;54305;47.950;6.572;2023-03-16T00:00:54;94529.34;;;-0.74;100.00
67434;BME280;54305;47.950;6.572;2023-03-16T00:03:23;94518.47;;;-0.63;100.00
67434;BME280;54305;47.950;6.572;2023-03-16T00:05:49;94518.84;;;-0.55;100.00
67434;BME280;54305;47.950;6.572;2023-03-16T00:08:15;94507.00;;;-0.56;100.00
67434;BME280;54305;47.950;6.572;2023-03-16T00:10:41;94520.41;;;-0.67;100.00
67434;BME280;54305;47.950;6.572;2023-03-16T00:13:14;94526.06;;;-0.76;100.00
67434;BME280;54305;47.950;6.572;2023-03-16T00:15:40;94519.66;;;-0.83;100.00
67434;BME280;54305;47.950;6.572;2023-03-16T00:18:06;94518.19;;;-0.87;100.00
67434;BME280;54305;47.950;6.572;2023-03-16T00:20:31;94517.28;;;-0.86;100.00
67434;BME280;54305;47.950;6.572;2023-03-16T00:22:57;94511.44;;;-0.88;100.00
67434;BME280;54305;47.950;6.572;2023-03-16T00:25:23;94504.16;;;-0.80;100.00
67434;BME280;54305;47.950;6.572;2023-03-16T00:27:48;94513.25;;;-0.90;100.00
67434;BME280;54305;47.950;6.572;2023-03-16T00:30:13;94494.94;;;-0.82;100.00
67434;BME280;54305;47.950;6.572;2023-03-16T00:32:38;94502.50;;;-0.81;100.00
67434;BME280;54305;47.950;6.572;2023-03-16T00:35:04;94498.84;;;-0.77;100.00
67434;BME280;54305;47.950;6.572;2023-03-16T00:37:30;94497.38;;;-0.81;100.00
67434;BME280;54305;47.950;6.572;2023-03-16T00:39:57;94496.28;;;-0.91;100.00
67434;BME280;54305;47.950;6.572;2023-03-16T00:42:23;94493.63;;;-0.89;100.00
67434;BME280;54305;47.950;6.572;2023-03-16T00:45:00;94495.38;;;-0.76;100.00
67434;BME280;54305;47.950;6.572;2023-03-16T00:47:26;94498.66;;;-0.88;100.00
67434;BME280;54305;47.950;6.572;2023-03-16T00:49:52;94495.94;;;-0.85;100.00
67434;BME280;54305;47.950;6.572;2023-03-16T00:52:17;94495.94;;;-0.85;100.00
67434;BME280;54305;47.950;6.572;2023-03-16T00:54:44;94492.00;;;-0.90;100.00
67434;BME280;54305;47.950;6.572;2023-03-16T00:57:10;94484.25;;;-0.89;100.00
67434;BME280;54305;47.950;6.572;2023-03-16T00:59:36;94486.25;;;-0.94;100.00
67434;BME280;54305;47.950;6.572;2023-03-16T01:02:02;94489.00;;;-0.83;100.00
67434;BME280;54305;47.950;6.572;2023-03-16T01:04:27;94482.59;;;-0.90;100.00
67434;BME280;54305;47.950;6.572;2023-03-16T01:06:53;94487.53;;;-0.87;100.00
67434;BME280;54305;47.950;6.572;2023-03-16T01:09:18;94480.38;;;-0.96;100.00
67434;BME280;54305;47.950;6.572;2023-03-16T01:11:44;94485.59;;;-0.97;100.00
67434;BME280;54305;47.950;6.572;2023-03-16T01:14:10;94484.41;;;-1.06;100.00
67434;BME280;54305;47.950;6.572;2023-03-16T01:16:36;94486.78;;;-1.03;100.00
67434;BME280;54305;47.950;6.572;2023-03-16T01:19:02;94479.84;;;-1.01;100.00
67434;BME280;54305;47.950;6.572;2023-03-16T01:21:27;94481.69;;;-0.89;100.00
67434;BME280;54305;47.950;6.572;2023-03-16T01:23:53;94481.69;;;-0.75;100.00
67434;BME280;54305;47.950;6.572;2023-03-16T01:26:19;94477.13;;;-0.84;100.00
67434;BME280;54305;47.950;6.572;2023-03-16T01:28:45;94476.94;;;-0.81;100.00
67434;BME280;54305;47.950;6.572;2023-03-16T01:31:11;94485.50;;;-0.82;100.00
67434;BME280;54305;47.950;6.572;2023-03-16T01:33:38;94470.56;;;-0.88;100.00
67434;BME280;54305;47.950;6.572;2023-03-16T01:36:04;94466.81;;;-0.96;100.00
67434;BME280;54305;47.950;6.572;2023-03-16T01:38:30;94466.00;;;-0.83;100.00
67434;BME280;54305;47.950;6.572;2023-03-16T01:40:55;94460.50;;;-0.91;100.00
67434;BME280;54305;47.950;6.572;2023-03-16T01:43:21;94459.41;;;-1.01;100.00
67434;BME280;54305;47.950;6.572;2023-03-16T01:48:22;94459.41;;;-0.87;100.00
67434;BME280;54305;47.950;6.572;2023-03-16T01:50:48;94454.66;;;-0.79;100.00
67434;BME280;54305;47.950;6.572;2023-03-16T01:53:16;94443.91;;;-0.70;100.00
67434;BME280;54305;47.950;6.572;2023-03-16T01:55:41;94440.81;;;-0.75;100.00
67434;BME280;54305;47.950;6.572;2023-03-16T01:58:06;94439.34;;;-0.79;100.00
67434;BME280;54305;47.950;6.572;2023-03-16T02:00:32;94440.50;;;-0.70;100.00
67434;BME280;54305;47.950;6.572;2023-03-16T02:02:59;94434.41;;;-0.82;100.00
67434;BME280;54305;47.950;6.572;2023-03-16T02:05:29;94438.59;;;-0.81;100.00
67434;BME280;54305;47.950;6.572;2023-03-16T02:07:57;94436.13;;;-0.68;100.00
67434;BME280;54305;47.950;6.572;2023-03-16T02:10:23;94427.97;;;-0.61;100.00
67434;BME280;54305;47.950;6.572;2023-03-16T02:12:50;94428.44;;;-0.54;100.00
67434;BME280;54305;47.950;6.572;2023-03-16T02:15:16;94425.22;;;-0.44;100.00
67434;BME280;54305;47.950;6.572;2023-03-16T02:17:42;94429.25;;;-0.13;100.00
67434;BME280;54305;47.950;6.572;2023-03-16T02:22:34;94409.38;;;0.04;100.00
67434;BME280;54305;47.950;6.572;2023-03-16T02:25:01;94401.09;;;0.13;100.00
67434;BME280;54305;47.950;6.572;2023-03-16T02:27:45;94398.25;;;0.30;100.00
67434;BME280;54305;47.950;6.572;2023-03-16T02:30:16;94397.19;;;0.47;100.00
67434;BME280;54305;47.950;6.572;2023-03-16T02:32:42;94398.31;;;0.55;100.00
67434;BME280;54305;47.950;6.572;2023-03-16T02:35:08;94390.53;;;0.69;100.00
67434;BME280;54305;47.950;6.572;2023-03-16T02:37:34;94392.19;;;0.83;100.00
67434;BME280;54305;47.950;6.572;2023-03-16T02:40:00;94388.28;;;0.90;100.00
67434;BME280;54305;47.950;6.572;2023-03-16T02:42:26;94385.81;;;1.01;100.00
67434;BME280;54305;47.950;6.572;2023-03-16T02:44:55;94390.56;;;0.95;100.00
67434;BME280;54305;47.950;6.572;2023-03-16T02:47:34;94387.25;;;0.93;100.00
67434;BME280;54305;47.950;6.572;2023-03-16T02:50:00;94385.22;;;0.98;100.00
67434;BME280;54305;47.950;6.572;2023-03-16T02:52:30;94381.31;;;1.05;100.00
67434;BME280;54305;47.950;6.572;2023-03-16T02:54:55;94381.09;;;1.08;100.00
67434;BME280;54305;47.950;6.572;2023-03-16T02:57:20;94379.28;;;1.10;100.00
67434;BME280;54305;47.950;6.572;2023-03-16T02:59:46;94379.28;;;1.10;100.00
67434;BME280;54305;47.950;6.572;2023-03-16T03:02:11;94375.53;;;1.13;100.00
67434;BME280;54305;47.950;6.572;2023-03-16T03:04:36;94373.50;;;1.19;100.00
67434;BME280;54305;47.950;6.572;2023-03-16T03:07:01;94369.25;;;1.30;100.00
67434;BME280;54305;47.950;6.572;2023-03-16T03:09:29;94372.66;;;1.31;100.00
67434;BME280;54305;47.950;6.572;2023-03-16T03:11:56;94377.66;;;1.45;100.00
67434;BME280;54305;47.950;6.572;2023-03-16T03:14:21;94375.09;;;1.45;100.00
67434;BME280;54305;47.950;6.572;2023-03-16T03:16:47;94371.41;;;1.49;100.00
67434;BME280;54305;47.950;6.572;2023-03-16T03:19:12;94369.97;;;1.45;100.00
67434;BME280;54305;47.950;6.572;2023-03-16T03:21:38;94366.47;;;1.46;100.00
67434;BME280;54305;47.950;6.572;2023-03-16T03:24:04;94355.78;;;1.52;100.00
67434;BME280;54305;47.950;6.572;2023-03-16T03:26:29;94348.81;;;1.54;100.00
67434;BME280;54305;47.950;6.572;2023-03-16T03:28:55;94340.16;;;1.55;100.00
67434;BME280;54305;47.950;6.572;2023-03-16T03:31:21;94355.38;;;1.58;100.00
67434;BME280;54305;47.950;6.572;2023-03-16T03:33:47;94345.69;;;1.61;100.00
67434;BME280;54305;47.950;6.572;2023-03-16T03:36:14;94343.81;;;1.63;100.00
67434;BME280;54305;47.950;6.572;2023-03-16T03:38:40;94344.66;;;1.64;100.00
67434;BME280;54305;47.950;6.572;2023-03-16T03:41:05;94346.09;;;1.68;100.00
67434;BME280;54305;47.950;6.572;2023-03-16T03:43:32;94339.53;;;1.64;100.00
67434;BME280;54305;47.950;6.572;2023-03-16T03:45:58;94331.94;;;1.62;100.00
67434;BME280;54305;47.950;6.572;2023-03-16T03:48:23;94333.66;;;1.62;100.00
67434;BME280;54305;47.950;6.572;2023-03-16T03:50:49;94340.03;;;1.69;100.00
67434;BME280;54305;47.950;6.572;2023-03-16T03:53:14;94343.56;;;1.79;100.00
67434;BME280;54305;47.950;6.572;2023-03-16T03:55:39;94334.72;;;1.83;100.00
67434;BME280;54305;47.950;6.572;2023-03-16T03:58:05;94331.03;;;1.87;100.00
67434;BME280;54305;47.950;6.572;2023-03-16T04:00:30;94332.97;;;1.83;100.00
67434;BME280;54305;47.950;6.572;2023-03-16T04:02:55;94327.97;;;1.82;100.00
67434;BME280;54305;47.950;6.572;2023-03-16T04:05:20;94338.22;;;1.82;99.50
67434;BME280;54305;47.950;6.572;2023-03-16T04:07:46;94338.44;;;1.79;99.88
67434;BME280;54305;47.950;6.572;2023-03-16T04:10:12;94345.44;;;1.77;99.92
67434;BME280;54305;47.950;6.572;2023-03-16T04:12:40;94337.25;;;1.72;100.00
67434;BME280;54305;47.950;6.572;2023-03-16T04:15:05;94341.34;;;1.74;98.46
67434;BME280;54305;47.950;6.572;2023-03-16T04:17:30;94333.75;;;1.73;99.93
67434;BME280;54305;47.950;6.572;2023-03-16T04:19:58;94335.00;;;1.67;100.00
67434;BME280;54305;47.950;6.572;2023-03-16T04:22:23;94335.09;;;1.66;100.00
67434;BME280;54305;47.950;6.572;2023-03-16T04:24:48;94335.53;;;1.60;100.00
67434;BME280;54305;47.950;6.572;2023-03-16T04:27:16;94336.03;;;1.65;100.00
67434;BME280;54305;47.950;6.572;2023-03-16T04:29:42;94339.13;;;1.57;100.00
67434;BME280;54305;47.950;6.572;2023-03-16T04:32:07;94335.88;;;1.55;99.31
67434;BME280;54305;47.950;6.572;2023-03-16T04:34:33;94330.84;;;1.54;99.61
67434;BME280;54305;47.950;6.572;2023-03-16T04:36:58;94331.97;;;1.50;100.00
67434;BME280;54305;47.950;6.572;2023-03-16T04:39:23;94330.13;;;1.52;98.79
67434;BME280;54305;47.950;6.572;2023-03-16T04:41:49;94328.47;;;1.51;100.00
67434;BME280;54305;47.950;6.572;2023-03-16T04:44:15;94325.66;;;1.43;100.00
67434;BME280;54305;47.950;6.572;2023-03-16T04:46:41;94327.69;;;1.38;100.00
67434;BME280;54305;47.950;6.572;2023-03-16T04:49:08;94320.13;;;1.36;100.00
67434;BME280;54305;47.950;6.572;2023-03-16T04:51:37;94318.69;;;1.32;100.00
67434;BME280;54305;47.950;6.572;2023-03-16T04:54:04;94322.41;;;1.28;100.00
67434;BME280;54305;47.950;6.572;2023-03-16T04:56:30;94324.13;;;1.27;100.00
67434;BME280;54305;47.950;6.572;2023-03-16T04:58:55;94316.88;;;1.22;100.00
67434;BME280;54305;47.950;6.572;2023-03-16T05:01:24;94323.44;;;1.26;100.00
67434;BME280;54305;47.950;6.572;2023-03-16T05:03:49;94324.25;;;1.26;100.00
67434;BME280;54305;47.950;6.572;2023-03-16T05:06:14;94330.00;;;1.30;100.00
67434;BME280;54305;47.950;6.572;2023-03-16T05:08:39;94328.13;;;1.32;99.88
67434;BME280;54305;47.950;6.572;2023-03-16T05:11:05;94344.94;;;1.36;99.54
67434;BME280;54305;47.950;6.572;2023-03-16T05:13:30;94338.78;;;1.38;98.89
67434;BME280;54305;47.950;6.572;2023-03-16T05:15:58;94338.38;;;1.32;100.00
67434;BME280;54305;47.950;6.572;2023-03-16T05:18:23;94343.34;;;1.22;100.00
67434;BME280;54305;47.950;6.572;2023-03-16T05:20:51;94330.81;;;1.17;100.00
67434;BME280;54305;47.950;6.572;2023-03-16T05:23:17;94330.31;;;1.13;100.00
67434;BME280;54305;47.950;6.572;2023-03-16T05:25:42;94329.81;;;1.08;100.00
67434;BME280;54305;47.950;6.572;2023-03-16T05:28:08;94321.84;;;1.00;100.00
67434;BME280;54305;47.950;6.572;2023-03-16T05:30:33;94329.13;;;1.06;100.00
67434;BME280;54305;47.950;6.572;2023-03-16T05:32:59;94321.34;;;0.95;100.00
67434;BME280;54305;47.950;6.572;2023-03-16T05:35:24;94317.56;;;0.88;100.00
67434;BME280;54305;47.950;6.572;2023-03-16T05:37:49;94308.84;;;0.77;100.00
67434;BME280;54305;47.950;6.572;2023-03-16T05:40:15;94298.91;;;0.73;100.00
67434;BME280;54305;47.950;6.572;2023-03-16T05:42:43;94281.50;;;0.66;100.00
67434;BME280;54305;47.950;6.572;2023-03-16T05:45:09;94271.44;;;0.63;100.00
67434;BME280;54305;47.950;6.572;2023-03-16T05:47:35;94281.50;;;0.66;100.00
67434;BME280;54305;47.950;6.572;2023-03-16T05:50:02;94285.66;;;0.92;100.00
67434;BME280;54305;47.950;6.572;2023-03-16T05:52:27;94285.53;;;1.06;100.00
67434;BME280;54305;47.950;6.572;2023-03-16T05:54:52;94284.16;;;1.13;100.00
67434;BME280;54305;47.950;6.572;2023-03-16T05:57:18;94287.53;;;1.26;100.00
67434;BME280;54305;47.950;6.572;2023-03-16T05:59:43;94281.94;;;1.32;100.00
67434;BME280;54305;47.950;6.572;2023-03-16T06:02:10;94286.66;;;1.38;100.00
67434;BME280;54305;47.950;6.572;2023-03-16T06:04:35;94278.78;;;1.52;97.45
67434;BME280;54305;47.950;6.572;2023-03-16T06:07:00;94262.97;;;1.58;97.05
67434;BME280;54305;47.950;6.572;2023-03-16T06:09:26;94248.31;;;1.71;96.12
67434;BME280;54305;47.950;6.572;2023-03-16T06:11:51;94226.44;;;1.78;93.23
67434;BME280;54305;47.950;6.572;2023-03-16T06:14:16;94236.94;;;1.86;92.92
67434;BME280;54305;47.950;6.572;2023-03-16T06:16:42;94241.19;;;1.98;90.66
67434;BME280;54305;47.950;6.572;2023-03-16T06:19:07;94243.78;;;2.09;87.95
67434;BME280;54305;47.950;6.572;2023-03-16T06:21:32;94240.41;;;2.19;89.59
67434;BME280;54305;47.950;6.572;2023-03-16T06:23:57;94242.63;;;2.24;90.22
67434;BME280;54305;47.950;6.572;2023-03-16T06:26:23;94250.81;;;2.29;88.30
67434;BME280;54305;47.950;6.572;2023-03-16T06:28:48;94243.59;;;2.34;86.41
67434;BME280;54305;47.950;6.572;2023-03-16T06:31:16;94252.00;;;2.36;87.79
67434;BME280;54305;47.950;6.572;2023-03-16T06:33:41;94253.53;;;2.49;84.57
67434;BME280;54305;47.950;6.572;2023-03-16T06:36:06;94258.00;;;2.58;81.44
67434;BME280;54305;47.950;6.572;2023-03-16T06:38:31;94260.66;;;2.57;86.21
67434;BME280;54305;47.950;6.572;2023-03-16T06:40:57;94264.66;;;2.61;82.95
67434;BME280;54305;47.950;6.572;2023-03-16T06:43:22;94265.81;;;2.68;83.20
67434;BME280;54305;47.950;6.572;2023-03-16T06:45:48;94267.94;;;2.74;81.98
67434;BME280;54305;47.950;6.572;2023-03-16T06:48:13;94267.72;;;2.88;79.80
67434;BME280;54305;47.950;6.572;2023-03-16T06:50:41;94269.53;;;2.97;78.87
67434;BME280;54305;47.950;6.572;2023-03-16T06:53:08;94268.63;;;3.09;79.40
67434;BME280;54305;47.950;6.572;2023-03-16T06:55:33;94257.72;;;3.27;78.68
67434;BME280;54305;47.950;6.572;2023-03-16T06:57:59;94257.22;;;3.44;77.91
67434;BME280;54305;47.950;6.572;2023-03-16T07:00:24;94255.19;;;3.59;75.53
67434;BME280;54305;47.950;6.572;2023-03-16T07:02:49;94260.88;;;3.73;73.60
67434;BME280;54305;47.950;6.572;2023-03-16T07:05:15;94261.22;;;3.80;73.53
67434;BME280;54305;47.950;6.572;2023-03-16T07:07:41;94260.44;;;3.89;73.05
67434;BME280;54305;47.950;6.572;2023-03-16T07:10:09;94254.09;;;4.04;75.03
67434;BME280;54305;47.950;6.572;2023-03-16T07:12:34;94267.25;;;4.10;72.14
67434;BME280;54305;47.950;6.572;2023-03-16T07:15:00;94270.16;;;4.17;73.08
67434;BME280;54305;47.950;6.572;2023-03-16T07:17:25;94261.25;;;4.21;69.98
67434;BME280;54305;47.950;6.572;2023-03-16T07:19:51;94270.06;;;4.39;72.22
67434;BME280;54305;47.950;6.572;2023-03-16T07:22:16;94267.19;;;4.42;69.36
67434;BME280;54305;47.950;6.572;2023-03-16T07:24:41;94262.44;;;4.58;67.83
67434;BME280;54305;47.950;6.572;2023-03-16T07:27:08;94254.19;;;4.64;66.42
67434;BME280;54305;47.950;6.572;2023-03-16T07:29:33;94255.22;;;4.82;70.51
67434;BME280;54305;47.950;6.572;2023-03-16T07:31:58;94253.75;;;4.89;65.98
67434;BME280;54305;47.950;6.572;2023-03-16T07:34:23;94250.59;;;5.15;66.10
67434;BME280;54305;47.950;6.572;2023-03-16T07:36:49;94248.75;;;5.36;65.04
67434;BME280;54305;47.950;6.572;2023-03-16T07:39:16;94254.19;;;5.43;62.65
67434;BME280;54305;47.950;6.572;2023-03-16T07:41:42;94242.78;;;5.45;63.44
67434;BME280;54305;47.950;6.572;2023-03-16T07:44:08;94234.94;;;5.66;63.99
67434;BME280;54305;47.950;6.572;2023-03-16T07:46:33;94239.50;;;6.02;64.12
67434;BME280;54305;47.950;6.572;2023-03-16T07:48:58;94242.59;;;6.34;62.54
67434;BME280;54305;47.950;6.572;2023-03-16T07:51:23;94243.91;;;6.57;58.67
67434;BME280;54305;47.950;6.572;2023-03-16T07:53:49;94250.41;;;6.80;58.68
67434;BME280;54305;47.950;6.572;2023-03-16T07:56:14;94256.56;;;7.06;61.29
67434;BME280;54305;47.950;6.572;2023-03-16T07:58:39;94255.63;;;7.34;57.30
67434;BME280;54305;47.950;6.572;2023-03-16T08:01:06;94259.97;;;7.43;54.99
67434;BME280;54305;47.950;6.572;2023-03-16T08:03:31;94262.25;;;7.73;55.36
67434;BME280;54305;47.950;6.572;2023-03-16T08:05:56;94255.81;;;8.12;55.71
67434;BME280;54305;47.950;6.572;2023-03-16T08:08:22;94246.66;;;8.00;53.21
67434;BME280;54305;47.950;6.572;2023-03-16T08:10:52;94246.56;;;8.27;53.50
67434;BME280;54305;47.950;6.572;2023-03-16T08:13:17;94256.13;;;8.44;52.59
67434;BME280;54305;47.950;6.572;2023-03-16T08:15:49;94253.44;;;8.53;50.84
67434;BME280;54305;47.950;6.572;2023-03-16T08:18:22;94248.41;;;8.34;51.53
67434;BME280;54305;47.950;6.572;2023-03-16T08:20:48;94247.84;;;8.66;51.54
67434;BME280;54305;47.950;6.572;2023-03-16T08:23:13;94247.66;;;8.85;48.06
67434;BME280;54305;47.950;6.572;2023-03-16T08:25:39;94245.50;;;9.06;49.89
67434;BME280;54305;47.950;6.572;2023-03-16T08:28:04;94240.44;;;9.30;49.98
67434;BME280;54305;47.950;6.572;2023-03-16T08:30:30;94238.44;;;9.16;48.40
67434;BME280;54305;47.950;6.572;2023-03-16T08:32:55;94234.28;;;9.31;49.19
67434;BME280;54305;47.950;6.572;2023-03-16T08:35:21;94234.97;;;9.49;51.91
67434;BME280;54305;47.950;6.572;2023-03-16T08:37:46;94230.31;;;9.19;46.48
67434;BME280;54305;47.950;6.572;2023-03-16T08:40:13;94226.97;;;9.01;48.65
67434;BME280;54305;47.950;6.572;2023-03-16T08:42:40;94224.06;;;9.04;49.67
67434;BME280;54305;47.950;6.572;2023-03-16T08:45:07;94227.91;;;8.92;49.20
67434;BME280;54305;47.950;6.572;2023-03-16T08:47:35;94223.94;;;8.80;47.54
67434;BME280;54305;47.950;6.572;2023-03-16T08:50:01;94216.69;;;8.66;49.72
67434;BME280;54305;47.950;6.572;2023-03-16T08:52:27;94224.53;;;8.48;48.66
67434;BME280;54305;47.950;6.572;2023-03-16T08:54:52;94225.41;;;8.57;49.08
67434;BME280;54305;47.950;6.572;2023-03-16T08:57:19;94227.78;;;9.01;47.74
67434;BME280;54305;47.950;6.572;2023-03-16T08:59:45;94219.34;;;9.33;45.87
67434;BME280;54305;47.950;6.572;2023-03-16T09:02:13;94229.25;;;9.79;46.27
67434;BME280;54305;47.950;6.572;2023-03-16T09:04:39;94231.78;;;10.28;48.76
67434;BME280;54305;47.950;6.572;2023-03-16T09:07:04;94230.16;;;10.75;48.80
67434;BME280;54305;47.950;6.572;2023-03-16T09:09:29;94237.09;;;11.07;44.97
67434;BME280;54305;47.950;6.572;2023-03-16T09:11:55;94239.69;;;11.15;43.55
67434;BME280;54305;47.950;6.572;2023-03-16T09:14:21;94227.66;;;11.06;42.42
67434;BME280;54305;47.950;6.572;2023-03-16T09:16:47;94230.19;;;11.30;45.54
67434;BME280;54305;47.950;6.572;2023-03-16T09:19:12;94215.88;;;11.26;44.61
67434;BME280;54305;47.950;6.572;2023-03-16T09:21:37;94215.78;;;11.50;43.09
67434;BME280;54305;47.950;6.572;2023-03-16T09:24:03;94211.25;;;11.44;45.09
67434;BME280;54305;47.950;6.572;2023-03-16T09:26:29;94217.03;;;11.70;43.23
67434;BME280;54305;47.950;6.572;2023-03-16T09:28:54;94214.38;;;11.78;41.19
67434;BME280;54305;47.950;6.572;2023-03-16T09:31:19;94215.88;;;11.18;40.71
67434;BME280;54305;47.950;6.572;2023-03-16T09:33:45;94209.97;;;11.40;44.81
67434;BME280;54305;47.950;6.572;2023-03-16T09:36:11;94204.28;;;11.36;43.06
67434;BME280;54305;47.950;6.572;2023-03-16T09:38:37;94213.78;;;11.68;39.15
67434;BME280;54305;47.950;6.572;2023-03-16T09:41:07;94208.03;;;12.03;38.72
67434;BME280;54305;47.950;6.572;2023-03-16T09:48:46;94206.31;;;12.77;41.88
67434;BME280;54305;47.950;6.572;2023-03-16T09:51:22;94200.25;;;13.43;40.59
67434;BME280;54305;47.950;6.572;2023-03-16T09:53:53;94200.59;;;13.11;38.62
67434;BME280;54305;47.950;6.572;2023-03-16T09:56:28;94191.81;;;12.89;39.23
67434;BME280;54305;47.950;6.572;2023-03-16T09:58:54;94200.91;;;11.97;36.64
67434;BME280;54305;47.950;6.572;2023-03-16T10:03:52;94201.09;;;13.14;36.10
67434;BME280;54305;47.950;6.572;2023-03-16T10:06:23;94191.50;;;13.07;35.60
67434;BME280;54305;47.950;6.572;2023-03-16T10:08:50;94200.59;;;12.59;38.01
67434;BME280;54305;47.950;6.572;2023-03-16T10:11:23;94205.97;;;12.95;35.90
67434;BME280;54305;47.950;6.572;2023-03-16T10:14:32;94194.25;;;12.91;34.58
67434;BME280;54305;47.950;6.572;2023-03-16T10:19:38;94201.25;;;13.13;37.31
67434;BME280;54305;47.950;6.572;2023-03-16T10:22:15;94195.50;;;13.82;34.21
67434;BME280;54305;47.950;6.572;2023-03-16T10:25:02;94199.59;;;14.62;32.23
67434;BME280;54305;47.950;6.572;2023-03-16T10:27:32;94207.00;;;15.07;33.22
67434;BME280;54305;47.950;6.572;2023-03-16T10:29:58;94209.59;;;14.16;32.30
67434;BME280;54305;47.950;6.572;2023-03-16T10:32:29;94201.59;;;14.60;30.26
67434;BME280;54305;47.950;6.572;2023-03-16T10:34:57;94205.34;;;14.72;29.81
67434;BME280;54305;47.950;6.572;2023-03-16T10:37:24;94200.16;;;14.01;30.67
67434;BME280;54305;47.950;6.572;2023-03-16T10:39:50;94201.16;;;12.69;32.19
67434;BME280;54305;47.950;6.572;2023-03-16T10:42:16;94197.13;;;12.44;30.56
67434;BME280;54305;47.950;6.572;2023-03-16T10:44:42;94198.19;;;13.38;32.45
67434;BME280;54305;47.950;6.572;2023-03-16T10:47:16;94195.22;;;13.27;30.36
67434;BME280;54305;47.950;6.572;2023-03-16T10:49:44;94189.56;;;12.49;33.53
67434;BME280;54305;47.950;6.572;2023-03-16T10:52:17;94182.75;;;13.29;33.80
67434;BME280;54305;47.950;6.572;2023-03-16T10:54:49;94190.59;;;13.29;31.96
67434;BME280;54305;47.950;6.572;2023-03-16T10:59:54;94181.81;;;13.80;28.98
67434;BME280;54305;47.950;6.572;2023-03-16T11:02:23;94191.81;;;14.12;27.72
67434;BME280;54305;47.950;6.572;2023-03-16T11:04:49;94194.94;;;14.01;29.80
67434;BME280;54305;47.950;6.572;2023-03-16T11:07:18;94191.88;;;14.33;30.61
67434;BME280;54305;47.950;6.572;2023-03-16T11:09:44;94194.69;;;15.07;28.64
67434;BME280;54305;47.950;6.572;2023-03-16T11:12:18;94180.09;;;15.26;29.88
67434;BME280;54305;47.950;6.572;2023-03-16T11:14:45;94176.41;;;15.95;26.94
67434;BME280;54305;47.950;6.572;2023-03-16T11:17:15;94184.13;;;14.67;25.71
67434;BME280;54305;47.950;6.572;2023-03-16T11:19:52;94185.34;;;15.60;28.07
67434;BME280;54305;47.950;6.572;2023-03-16T11:22:21;94181.19;;;16.45;28.33
67434;BME280;54305;47.950;6.572;2023-03-16T11:32:36;94182.56;;;18.15;22.59
67434;BME280;54305;47.950;6.572;2023-03-16T11:35:05;94189.63;;;19.14;22.45
67434;BME280;54305;47.950;6.572;2023-03-16T11:40:19;94186.09;;;17.96;22.34
67434;BME280;54305;47.950;6.572;2023-03-16T11:45:31;94178.00;;;16.56;24.68
67434;BME280;54305;47.950;6.572;2023-03-16T11:50:32;94177.69;;;15.31;22.97
67434;BME280;54305;47.950;6.572;2023-03-16T11:53:07;94175.78;;;15.86;26.96
67434;BME280;54305;47.950;6.572;2023-03-16T11:55:45;94172.34;;;16.85;22.75
67434;BME280;54305;47.950;6.572;2023-03-16T12:13:27;94156.34;;;17.82;26.82
67434;BME280;54305;47.950;6.572;2023-03-16T12:15:58;94152.59;;;19.63;21.57
67434;BME280;54305;47.950;6.572;2023-03-16T12:18:48;94143.28;;;20.56;19.93
67434;BME280;54305;47.950;6.572;2023-03-16T12:21:16;94145.81;;;20.51;21.59
67434;BME280;54305;47.950;6.572;2023-03-16T12:23:54;94131.63;;;20.45;19.99
67434;BME280;54305;47.950;6.572;2023-03-16T12:26:22;94134.47;;;20.73;19.67
67434;BME280;54305;47.950;6.572;2023-03-16T12:28:48;94132.63;;;20.62;19.04
67434;BME280;54305;47.950;6.572;2023-03-16T12:31:16;94139.72;;;19.06;16.46
67434;BME280;54305;47.950;6.572;2023-03-16T12:36:26;94121.72;;;19.63;20.87
67434;BME280;54305;47.950;6.572;2023-03-16T12:44:13;94102.34;;;19.09;21.15
67434;BME280;54305;47.950;6.572;2023-03-16T12:49:08;94103.38;;;19.08;17.33
67434;BME280;54305;47.950;6.572;2023-03-16T12:51:38;94100.81;;;17.84;20.80
67434;BME280;54305;47.950;6.572;2023-03-16T12:54:04;94104.91;;;18.48;21.25
67434;BME280;54305;47.950;6.572;2023-03-16T12:56:32;94096.00;;;17.81;19.99
67434;BME280;54305;47.950;6.572;2023-03-16T12:58:59;94083.97;;;18.22;22.31
67434;BME280;54305;47.950;6.572;2023-03-16T13:01:25;94084.44;;;18.13;20.64
67434;BME280;54305;47.950;6.572;2023-03-16T13:03:57;94088.19;;;16.85;20.70
67434;BME280;54305;47.950;6.572;2023-03-16T13:06:24;94078.84;;;16.24;22.09
67434;BME280;54305;47.950;6.572;2023-03-16T13:08:56;94087.81;;;17.89;23.86
67434;BME280;54305;47.950;6.572;2023-03-16T13:11:26;94084.81;;;18.72;22.59
67434;BME280;54305;47.950;6.572;2023-03-16T13:16:29;94084.41;;;17.31;19.98
67434;BME280;54305;47.950;6.572;2023-03-16T13:18:55;94074.22;;;16.39;21.35
67434;BME280;54305;47.950;6.572;2023-03-16T13:26:16;94081.91;;;17.56;24.76
67434;BME280;54305;47.950;6.572;2023-03-16T13:28:43;94069.56;;;18.98;25.40
67434;BME280;54305;47.950;6.572;2023-03-16T13:34:14;94060.44;;;19.55;21.93
67434;BME280;54305;47.950;6.572;2023-03-16T13:36:43;94063.25;;;18.26;21.42
67434;BME280;54305;47.950;6.572;2023-03-16T13:41:37;94067.50;;;19.00;22.08
67434;BME280;54305;47.950;6.572;2023-03-16T13:44:03;94062.25;;;19.18;20.45
67434;BME280;54305;47.950;6.572;2023-03-16T13:46:29;94067.19;;;18.17;20.22
67434;BME280;54305;47.950;6.572;2023-03-16T13:48:56;94068.91;;;17.04;20.69
67434;BME280;54305;47.950;6.572;2023-03-16T13:51:22;94069.47;;;17.19;21.96
67434;BME280;54305;47.950;6.572;2023-03-16T13:53:48;94073.16;;;16.92;22.95
67434;BME280;54305;47.950;6.572;2023-03-16T13:56:17;94064.13;;;17.32;24.04
67434;BME280;54305;47.950;6.572;2023-03-16T13:58:46;94063.09;;;16.89;22.11
67434;BME280;54305;47.950;6.572;2023-03-16T14:01:22;94068.38;;;16.50;22.28
67434;BME280;54305;47.950;6.572;2023-03-16T14:03:49;94067.91;;;16.92;23.51
67434;BME280;54305;47.950;6.572;2023-03-16T14:06:28;94068.34;;;16.76;22.22
67434;BME280;54305;47.950;6.572;2023-03-16T14:08:56;94058.28;;;16.60;22.77
67434;BME280;54305;47.950;6.572;2023-03-16T14:11:22;94067.53;;;16.75;24.83